Time;durP1;ratioP1;P1;durP2;ratioP2;P2;SDS_P1;SDS_P2;PMS_P1;PMS_P2;Temp;Humidity;BMP_temperature;BMP_pressure;BME280_temperature;BME280_humidity;BME280_pressure;Samples;Min_cycle;Max_cycle;Signal;HPM_P1;HPM_P2
2022/04/16 00:04:22;;;;;;;;;;;16.20;56.30;;;;;;5063861;27;86732;-52
2022/04/16 00:09:50;;;;;;;;;;;16.20;56.30;;;;;;5063905;27;86682;-52
2022/04/16 00:15:19;;;;;;;;;;;16.20;56.30;;;;;;5065716;27;87895;-52
2022/04/16 00:20:51;;;;;;;;;;;16.20;56.30;;;;;;5062623;27;86920;-51
2022/04/16 00:26:21;;;;;;;;;;;16.20;56.30;;;;;;5063736;27;86795;-52
2022/04/16 00:31:49;;;;;;;;;;;16.10;56.30;;;;;;5066177;27;86771;-52
2022/04/16 00:37:18;;;;;;;;;;;16.10;56.30;;;;;;5066596;27;87004;-52
2022/04/16 00:42:46;;;;;;;;;;;16.10;56.30;;;;;;5065897;27;87918;-52
2022/04/16 00:48:15;;;;;;;;;;;16.00;56.30;;;;;;5066719;27;86656;-52
2022/04/16 00:53:44;;;;;;;;;;;16.00;56.30;;;;;;5066720;27;86714;-52
2022/04/16 00:59:12;;;;;;;;;;;15.90;56.10;;;;;;5066227;27;87046;-52
2022/04/16 01:04:41;;;;;;;;;;;15.90;56.20;;;;;;5066212;27;86767;-51
2022/04/16 01:10:09;;;;;;;;;;;15.80;56.20;;;;;;5066045;27;87648;-52
2022/04/16 01:15:39;;;;;;;;;;;15.80;56.10;;;;;;5068411;27;86758;-52
2022/04/16 01:21:07;;;;;;;;;;;15.80;56.20;;;;;;5065826;27;86936;-51
2022/04/16 01:26:35;;;;;;;;;;;15.80;56.20;;;;;;5068828;27;86739;-51
2022/04/16 01:32:05;;;;;;;;;;;15.70;56.10;;;;;;5066257;27;86762;-52
2022/04/16 01:37:34;;;;;;;;;;;15.70;56.10;;;;;;5065351;27;87694;-52
2022/04/16 01:43:02;;;;;;;;;;;15.70;56.20;;;;;;5064495;27;86794;-52
2022/04/16 01:48:31;;;;;;;;;;;15.60;56.10;;;;;;5065928;27;86830;-52
2022/04/16 01:54:00;;;;;;;;;;;15.60;56.10;;;;;;5065806;27;86725;-52
2022/04/16 01:59:29;;;;;;;;;;;15.50;56.10;;;;;;5065669;27;86726;-51
2022/04/16 02:04:57;;;;;;;;;;;15.50;56.10;;;;;;5064616;27;87856;-52
2022/04/16 02:10:26;;;;;;;;;;;15.50;56.10;;;;;;5065520;27;86738;-52
2022/04/16 02:15:56;;;;;;;;;;;15.40;56.10;;;;;;5068463;27;86923;-52
2022/04/16 02:21:24;;;;;;;;;;;15.40;56.10;;;;;;5065862;27;86930;-52
2022/04/16 02:26:55;;;;;;;;;;;15.40;56.10;;;;;;5065022;27;87032;-51
2022/04/16 02:32:24;;;;;;;;;;;15.30;56.20;;;;;;5064843;27;87684;-51
2022/04/16 02:37:53;;;;;;;;;;;15.30;56.00;;;;;;5065212;27;86853;-51
2022/04/16 02:43:21;;;;;;;;;;;15.30;55.90;;;;;;5065080;27;86694;-51
2022/04/16 02:48:49;;;;;;;;;;;15.20;56.00;;;;;;5064513;27;87013;-52
2022/04/16 02:54:18;;;;;;;;;;;15.10;56.00;;;;;;5064722;27;86747;-51
2022/04/16 02:59:46;;;;;;;;;;;15.10;55.90;;;;;;5064210;27;87668;-52
2022/04/16 03:05:15;;;;;;;;;;;15.10;55.90;;;;;;5064771;27;86748;-51
2022/04/16 03:10:44;;;;;;;;;;;15.10;56.00;;;;;;5064338;27;86998;-51
2022/04/16 03:22:00;;;;;;;;;;;14.90;56.00;;;;;;5064942;27;87240;-51
2022/04/16 03:27:28;;;;;;;;;;;14.90;55.90;;;;;;5066378;27;87730;-51
2022/04/16 03:32:57;;;;;;;;;;;14.90;55.80;;;;;;5063938;27;87001;-51
2022/04/16 03:38:25;;;;;;;;;;;14.80;55.80;;;;;;5064328;27;86818;-51
2022/04/16 03:43:54;;;;;;;;;;;14.80;55.90;;;;;;5064118;27;86741;-51
2022/04/16 03:49:22;;;;;;;;;;;14.80;55.80;;;;;;5063696;27;86910;-51
2022/04/16 04:00:39;;;;;;;;;;;14.70;55.90;;;;;;5064032;27;86741;-51
2022/04/16 04:06:08;;;;;;;;;;;14.60;55.80;;;;;;5065459;27;86831;-51
2022/04/16 04:11:37;;;;;;;;;;;14.60;55.90;;;;;;5066898;27;86758;-51
2022/04/16 04:17:09;;;;;;;;;;;14.50;55.90;;;;;;5070008;27;86749;-51
2022/04/16 04:22:38;;;;;;;;;;;14.50;56.00;;;;;;5065442;27;87792;-51
2022/04/16 04:28:06;;;;;;;;;;;14.40;55.90;;;;;;5067228;27;86759;-51
2022/04/16 04:33:34;;;;;;;;;;;14.40;55.90;;;;;;5066696;27;87010;-51
2022/04/16 04:39:03;;;;;;;;;;;14.40;56.00;;;;;;5067118;27;86782;-51
2022/04/16 04:44:31;;;;;;;;;;;14.40;56.70;;;;;;5067099;27;86832;-51
2022/04/16 04:49:59;;;;;;;;;;;14.40;55.90;;;;;;5066119;27;87707;-51
2022/04/16 04:55:29;;;;;;;;;;;14.30;56.00;;;;;;5066330;27;86812;-52
2022/04/16 05:00:57;;;;;;;;;;;14.30;56.10;;;;;;5066783;27;86632;-51
2022/04/16 05:06:26;;;;;;;;;;;14.20;56.00;;;;;;5069513;27;86675;-51
2022/04/16 05:11:55;;;;;;;;;;;14.20;56.00;;;;;;5066423;27;87371;-51
2022/04/16 05:17:23;;;;;;;;;;;14.20;56.10;;;;;;5065327;27;87638;-51
2022/04/16 05:22:52;;;;;;;;;;;14.20;56.20;;;;;;5066173;27;86875;-52
2022/04/16 05:28:21;;;;;;;;;;;14.10;56.20;;;;;;5069067;27;86727;-51
2022/04/16 05:39:38;;;;;;;;;;;14.10;56.20;;;;;;5065590;27;87082;-51
2022/04/16 05:45:08;;;;;;;;;;;14.10;56.30;;;;;;5066307;27;87773;-51
2022/04/16 05:50:37;;;;;;;;;;;14.10;56.30;;;;;;5065962;27;86740;-51
2022/04/16 05:56:06;;;;;;;;;;;14.10;56.30;;;;;;5065782;27;86678;-51
2022/04/16 06:01:34;;;;;;;;;;;14.00;56.30;;;;;;5065346;27;86719;-51
2022/04/16 06:07:03;;;;;;;;;;;14.10;56.40;;;;;;5065679;27;86743;-51
2022/04/16 06:12:31;;;;;;;;;;;14.10;56.40;;;;;;5064989;27;87557;-51
2022/04/16 06:18:00;;;;;;;;;;;14.10;56.40;;;;;;5068023;27;86723;-51
2022/04/16 06:23:31;;;;;;;;;;;14.10;56.20;;;;;;5064006;27;86976;-51
2022/04/16 06:29:00;;;;;;;;;;;14.10;56.30;;;;;;5064707;27;86790;-50
2022/04/16 06:34:28;;;;;;;;;;;14.10;56.30;;;;;;5064996;27;86773;-50
2022/04/16 06:39:57;;;;;;;;;;;14.10;56.30;;;;;;5064063;27;87831;-50
2022/04/16 06:45:25;;;;;;;;;;;14.10;56.40;;;;;;5064583;27;86798;-51
2022/04/16 06:50:54;;;;;;;;;;;14.10;56.30;;;;;;5064939;27;86774;-50
2022/04/16 06:56:23;;;;;;;;;;;14.10;56.30;;;;;;5064885;27;86745;-51
2022/04/16 07:01:51;;;;;;;;;;;14.10;56.40;;;;;;5064304;27;87004;-51
2022/04/16 07:07:19;;;;;;;;;;;14.10;56.50;;;;;;5066443;27;87793;-52
2022/04/16 07:12:48;;;;;;;;;;;14.20;56.30;;;;;;5064368;27;86794;-51
2022/04/16 07:18:17;;;;;;;;;;;14.20;56.30;;;;;;5064593;27;86700;-51
2022/04/16 07:23:45;;;;;;;;;;;14.20;56.20;;;;;;5064132;27;86933;-51
2022/04/16 07:29:14;;;;;;;;;;;14.20;55.90;;;;;;5064433;27;86701;-52
2022/04/16 07:34:43;;;;;;;;;;;14.20;56.00;;;;;;5063591;27;87577;-52
2022/04/16 07:40:12;;;;;;;;;;;14.20;55.70;;;;;;5064290;27;86722;-51
2022/04/16 07:45:40;;;;;;;;;;;14.20;55.70;;;;;;5067370;27;87040;-51
2022/04/16 07:51:09;;;;;;;;;;;14.20;55.60;;;;;;5067702;27;86758;-52
2022/04/16 07:56:38;;;;;;;;;;;14.20;55.60;;;;;;5067380;27;86588;-52
2022/04/16 08:02:06;;;;;;;;;;;14.20;55.40;;;;;;5069693;27;87651;-50
2022/04/16 08:07:35;;;;;;;;;;;14.20;55.20;;;;;;5066097;27;86659;-54
2022/04/16 08:10:00;;;;;;;;;;;14.20;55.20;;;;;;5069403;27;86847;-49
2022/04/16 08:12:26;;;;;;;;;;;14.20;55.20;;;;;;5069445;27;87835;-50
2022/04/16 08:14:52;;;;;;;;;;;14.20;55.20;;;;;;5068387;27;88103;-50
2022/04/16 08:17:18;;;;;;;;;;;14.10;55.30;;;;;;5072149;27;86929;-49
2022/04/16 08:19:44;;;;;;;;;;;14.20;55.40;;;;;;5069688;27;86700;-51
2022/04/16 08:22:17;;;;;;;;;;;14.20;55.50;;;;;;5069177;27;86870;-49
2022/04/16 08:24:55;;;;;;;;;;;14.20;55.50;;;;;;5068470;27;87971;-49
2022/04/16 08:27:21;;;;;;;;;;;14.20;55.50;;;;;;5067790;27;87899;-50
2022/04/16 08:29:47;;;;;;;;;;;14.20;55.60;;;;;;5068934;27;86837;-50
2022/04/16 08:32:12;;;;;;;;;;;14.20;55.50;;;;;;5068926;27;87851;-49
2022/04/16 08:34:38;;;;;;;;;;;14.20;55.50;;;;;;5068504;27;87581;-49
2022/04/16 08:37:04;;;;;;;;;;;14.20;55.50;;;;;;5068963;27;86869;-53
2022/04/16 08:39:29;;;;;;;;;;;14.20;55.60;;;;;;5071459;27;87070;-49
2022/04/16 08:41:56;;;;;;;;;;;14.20;55.50;;;;;;5069141;27;86747;-50
2022/04/16 08:44:23;;;;;;;;;;;14.20;55.40;;;;;;5069262;27;86986;-52
2022/04/16 08:46:49;;;;;;;;;;;14.20;55.30;;;;;;5068738;27;87705;-53
2022/04/16 08:49:15;;;;;;;;;;;14.20;55.50;;;;;;5068708;27;86862;-49
2022/04/16 08:51:42;;;;;;;;;;;14.20;55.60;;;;;;5067770;27;88338;-49
2022/04/16 08:54:08;;;;;;;;;;;14.30;55.70;;;;;;5068117;27;88742;-52
2022/04/16 08:56:34;;;;;;;;;;;14.20;55.70;;;;;;5068570;27;86876;-49
2022/04/16 08:58:59;;;;;;;;;;;14.20;55.50;;;;;;5068865;27;86853;-51
2022/04/16 09:01:25;;;;;;;;;;;14.30;55.50;;;;;;5071102;27;88632;-51
2022/04/16 09:03:55;;;;;;;;;;;14.30;55.50;;;;;;5068708;27;88032;-49
2022/04/16 09:06:22;;;;;;;;;;;14.30;55.60;;;;;;5068135;27;87837;-53
2022/04/16 09:08:47;;;;;;;;;;;14.30;55.60;;;;;;5068793;27;86200;-49
2022/04/16 09:11:13;;;;;;;;;;;14.30;55.60;;;;;;5068773;27;86831;-50
2022/04/16 09:13:55;;;;;;;;;;;14.30;55.40;;;;;;5067793;27;87766;-49
2022/04/16 09:16:21;;;;;;;;;;;14.30;55.50;;;;;;5067720;27;87880;-50
2022/04/16 09:18:47;;;;;;;;;;;14.30;55.60;;;;;;5068539;27;87249;-53
2022/04/16 09:21:13;;;;;;;;;;;14.30;55.60;;;;;;5067700;27;86936;-49
2022/04/16 09:23:44;;;;;;;;;;;14.30;55.70;;;;;;5070956;27;87098;-50
2022/04/16 09:26:10;;;;;;;;;;;14.30;55.80;;;;;;5067414;27;87288;-49
2022/04/16 09:28:42;;;;;;;;;;;14.40;55.80;;;;;;5068426;27;86774;-50
2022/04/16 09:31:07;;;;;;;;;;;14.40;55.90;;;;;;5068327;27;88257;-53
2022/04/16 09:33:37;;;;;;;;;;;14.40;55.80;;;;;;5067960;27;87844;-49
2022/04/16 09:36:03;;;;;;;;;;;14.40;55.90;;;;;;5068081;27;86935;-50
2022/04/16 09:38:34;;;;;;;;;;;14.40;55.80;;;;;;5068281;27;86868;-51
2022/04/16 09:41:04;;;;;;;;;;;14.40;55.70;;;;;;5067095;27;88527;-50
2022/04/16 09:43:36;;;;;;;;;;;14.40;55.80;;;;;;5067769;27;87030;-50
2022/04/16 09:46:11;;;;;;;;;;;14.40;55.80;;;;;;5070770;27;86850;-51
2022/04/16 09:48:37;;;;;;;;;;;14.50;55.60;;;;;;5067581;27;86919;-51
2022/04/16 09:51:04;;;;;;;;;;;14.50;55.80;;;;;;5068120;27;86880;-51
2022/04/16 09:53:30;;;;;;;;;;;14.50;55.90;;;;;;5067132;27;88654;-49
2022/04/16 09:55:58;;;;;;;;;;;14.50;55.90;;;;;;5067645;27;86958;-54
2022/04/16 09:58:28;;;;;;;;;;;14.50;55.80;;;;;;5068445;27;87080;-50
2022/04/16 10:00:53;;;;;;;;;;;14.60;55.70;;;;;;5067930;27;87447;-50
2022/04/16 10:03:19;;;;;;;;;;;14.60;55.70;;;;;;5067162;27;86726;-50
2022/04/16 10:05:45;;;;;;;;;;;14.60;55.70;;;;;;5070059;27;87991;-50
2022/04/16 10:08:13;;;;;;;;;;;14.60;55.70;;;;;;5067958;27;86908;-51
2022/04/16 10:10:42;;;;;;;;;;;14.60;55.70;;;;;;5068039;27;87149;-51
2022/04/16 10:13:10;;;;;;;;;;;14.70;55.70;;;;;;5067528;27;88487;-51
2022/04/16 10:15:55;;;;;;;;;;;14.70;55.50;;;;;;5067756;27;86890;-51
2022/04/16 10:18:21;;;;;;;;;;;14.70;55.50;;;;;;5068111;27;86870;-50
2022/04/16 10:20:56;;;;;;;;;;;14.70;55.30;;;;;;5067339;27;88648;-52
2022/04/16 10:23:32;;;;;;;;;;;14.80;55.20;;;;;;5068099;27;86010;-50
2022/04/16 10:26:08;;;;;;;;;;;14.80;55.20;;;;;;5067435;27;87222;-51
2022/04/16 10:28:41;;;;;;;;;;;14.80;55.30;;;;;;5070144;27;88581;-51
2022/04/16 10:31:18;;;;;;;;;;;14.80;55.40;;;;;;5066992;27;88066;-51
2022/04/16 10:33:52;;;;;;;;;;;14.90;55.40;;;;;;5066538;27;88535;-50
2022/04/16 10:36:23;;;;;;;;;;;14.90;55.40;;;;;;5067850;27;86918;-51
2022/04/16 10:38:51;;;;;;;;;;;14.90;55.40;;;;;;5067725;27;86868;-51
2022/04/16 10:41:20;;;;;;;;;;;14.90;55.40;;;;;;5066486;27;88701;-52
2022/04/16 10:43:59;;;;;;;;;;;15.00;55.40;;;;;;5065002;27;87125;-54
2022/04/16 10:46:38;;;;;;;;;;;15.00;53.20;;;;;;5066945;27;88127;-51
2022/04/16 10:49:06;;;;;;;;;;;14.90;52.80;;;;;;5066686;27;86872;-51
2022/04/16 10:51:33;;;;;;;;;;;14.80;53.50;;;;;;5069597;27;87100;-51
2022/04/16 10:54:11;;;;;;;;;;;14.90;53.50;;;;;;5066444;27;87820;-51
2022/04/16 10:56:39;;;;;;;;;;;15.10;53.60;;;;;;5065366;27;87901;-60
2022/04/16 10:59:06;;;;;;;;;;;15.10;51.30;;;;;;5067028;27;88324;-61
2022/04/16 11:01:31;;;;;;;;;;;15.10;49.30;;;;;;5066323;27;86943;-61
2022/04/16 11:03:57;;;;;;;;;;;15.20;48.40;;;;;;5067318;27;86930;-53
2022/04/16 11:06:33;;;;;;;;;;;15.30;49.30;;;;;;5067159;27;86961;-58
2022/04/16 11:39:15;;;;;;;;;;;16.10;50.10;;;;;;5048825;28;80033;-56
2022/04/16 11:41:46;;;;;;;;;;;16.20;48.70;;;;;;5047886;27;79945;-49
2022/04/16 11:44:11;;;;;;;;;;;16.10;47.70;;;;;;5047616;27;81320;-52
2022/04/16 11:46:41;;;;;;;;;;;16.10;49.20;;;;;;5047339;27;81685;-52
2022/04/16 11:49:07;;;;;;;;;;;16.20;49.30;;;;;;5046672;27;80201;-54
2022/04/16 11:51:36;;;;;;;;;;;16.20;49.40;;;;;;5047437;27;81528;-51
2022/04/16 11:54:02;;;;;;;;;;;16.30;49.50;;;;;;5047264;28;81690;-51
2022/04/16 11:56:27;;;;;;;;;;;16.30;49.50;;;;;;5047301;27;80061;-54
2022/04/16 11:58:53;;;;;;;;;;;16.10;49.80;;;;;;5049701;27;80389;-51
2022/04/16 12:01:22;;;;;;;;;;;16.10;50.70;;;;;;5047099;28;80235;-51
2022/04/16 12:03:48;;;;;;;;;;;16.10;49.90;;;;;;5047175;27;80915;-50
2022/04/16 12:06:15;;;;;;;;;;;16.20;49.60;;;;;;5046947;28;81803;-50
2022/04/16 12:08:41;;;;;;;;;;;16.30;49.60;;;;;;5046951;28;80478;-50
2022/04/16 12:11:08;;;;;;;;;;;16.30;49.90;;;;;;5047027;27;81272;-51
2022/04/16 12:13:37;;;;;;;;;;;16.30;49.90;;;;;;5047060;27;81110;-52
2022/04/16 12:16:04;;;;;;;;;;;16.20;50.10;;;;;;5046918;27;80122;-51
2022/04/16 12:18:34;;;;;;;;;;;16.20;50.30;;;;;;5046885;27;81221;-51
2022/04/16 12:21:05;;;;;;;;;;;16.30;50.10;;;;;;5049459;27;80737;-50
2022/04/16 12:23:30;;;;;;;;;;;16.20;50.40;;;;;;5046877;28;81199;-51
2022/04/16 12:26:04;;;;;;;;;;;16.20;50.40;;;;;;5046671;28;82344;-50
2022/04/16 12:28:32;;;;;;;;;;;16.20;50.40;;;;;;5046628;28;80255;-51
2022/04/16 12:30:57;;;;;;;;;;;16.30;50.80;;;;;;5046733;27;81472;-51
2022/04/16 12:33:26;;;;;;;;;;;16.30;50.60;;;;;;5046479;28;82052;-50
2022/04/16 12:35:55;;;;;;;;;;;16.30;50.70;;;;;;5046999;27;80358;-50
2022/04/16 12:38:21;;;;;;;;;;;16.30;50.70;;;;;;5041770;27;81546;-50
2022/04/16 12:40:47;;;;;;;;;;;16.30;50.90;;;;;;5033273;28;80340;-50
2022/04/16 12:43:13;;;;;;;;;;;16.30;50.80;;;;;;5035816;28;80087;-50
2022/04/16 12:45:38;;;;;;;;;;;16.30;51.00;;;;;;5032883;28;81669;-50
2022/04/16 12:48:04;;;;;;;;;;;16.30;50.80;;;;;;5033207;28;80052;-55
2022/04/16 12:50:31;;;;;;;;;;;16.30;51.00;;;;;;5033071;28;80964;-50
2022/04/16 12:52:59;;;;;;;;;;;16.30;51.00;;;;;;5032880;28;81833;-50
2022/04/16 12:55:25;;;;;;;;;;;16.40;51.10;;;;;;5032914;28;80249;-50
2022/04/16 12:57:51;;;;;;;;;;;16.40;51.20;;;;;;5032895;28;81467;-51
2022/04/16 13:00:16;;;;;;;;;;;16.40;51.00;;;;;;5032792;28;81854;-51
2022/04/16 13:02:43;;;;;;;;;;;16.40;51.10;;;;;;5032734;28;80316;-50
2022/04/16 13:05:09;;;;;;;;;;;16.40;51.20;;;;;;5035221;28;81450;-50
2022/04/16 13:07:39;;;;;;;;;;;16.40;51.30;;;;;;5032575;28;80274;-50
2022/04/16 13:10:06;;;;;;;;;;;16.50;51.40;;;;;;5032780;28;80433;-50
2022/04/16 13:12:31;;;;;;;;;;;16.40;51.30;;;;;;5032415;28;80919;-53
2022/04/16 13:14:57;;;;;;;;;;;16.40;51.20;;;;;;5032900;28;80243;-51
2022/04/16 13:17:22;;;;;;;;;;;16.40;51.60;;;;;;5032828;28;80117;-51
2022/04/16 13:19:48;;;;;;;;;;;16.40;51.00;;;;;;5032646;28;80695;-52
2022/04/16 13:22:15;;;;;;;;;;;16.40;51.50;;;;;;5032828;28;80084;-51
2022/04/16 13:24:40;;;;;;;;;;;16.40;51.40;;;;;;5032531;28;81428;-51
2022/04/16 13:27:06;;;;;;;;;;;16.40;51.50;;;;;;5034809;28;80895;-54
2022/04/16 13:29:35;;;;;;;;;;;16.50;51.50;;;;;;5032537;28;80638;-51
2022/04/16 13:32:01;;;;;;;;;;;16.50;51.40;;;;;;5032338;28;80734;-51
2022/04/16 13:34:28;;;;;;;;;;;16.50;51.60;;;;;;5032169;28;80300;-51
2022/04/16 13:36:54;;;;;;;;;;;16.50;51.30;;;;;;5031470;28;80128;-51
2022/04/16 13:42:04;;;;;;;;;;;16.50;51.60;;;;;;5032418;28;80280;-51
2022/04/16 13:44:30;;;;;;;;;;;16.50;51.40;;;;;;5032163;28;81343;-51
2022/04/16 13:46:56;;;;;;;;;;;16.50;51.60;;;;;;5031860;28;80929;-51
2022/04/16 13:49:21;;;;;;;;;;;16.60;51.80;;;;;;5034828;28;80095;-51
2022/04/16 13:51:47;;;;;;;;;;;16.60;51.80;;;;;;5030849;28;81920;-51
2022/04/16 13:54:13;;;;;;;;;;;16.50;51.80;;;;;;5032023;28;80095;-51
2022/04/16 13:56:38;;;;;;;;;;;16.60;51.80;;;;;;5032041;28;81068;-51
2022/04/16 13:59:06;;;;;;;;;;;16.60;52.00;;;;;;5031966;28;80686;-51
2022/04/16 14:01:33;;;;;;;;;;;16.50;52.00;;;;;;5031481;28;80123;-52
2022/04/16 14:03:59;;;;;;;;;;;16.50;51.80;;;;;;5031072;28;80096;-52
2022/04/16 14:06:24;;;;;;;;;;;16.60;52.10;;;;;;5031102;28;81856;-52
2022/04/16 14:08:50;;;;;;;;;;;16.60;52.20;;;;;;5034011;28;80344;-51
2022/04/16 14:11:16;;;;;;;;;;;16.60;52.20;;;;;;5031762;28;80024;-55
2022/04/16 14:13:41;;;;;;;;;;;16.50;52.20;;;;;;5031166;28;80096;-54
2022/04/16 14:16:10;;;;;;;;;;;16.60;52.10;;;;;;5031273;28;81219;-52
2022/04/16 14:18:36;;;;;;;;;;;16.60;51.90;;;;;;5031017;28;81798;-52
2022/04/16 14:21:01;;;;;;;;;;;16.60;52.10;;;;;;5031515;28;80191;-51
2022/04/16 14:23:27;;;;;;;;;;;16.60;52.20;;;;;;5031379;28;80308;-53
2022/04/16 14:25:54;;;;;;;;;;;16.60;52.40;;;;;;5030927;28;81956;-51
2022/04/16 14:28:19;;;;;;;;;;;16.60;52.10;;;;;;5030879;28;80096;-52
2022/04/16 14:30:45;;;;;;;;;;;16.60;52.40;;;;;;5033589;28;81575;-54
2022/04/16 14:33:11;;;;;;;;;;;16.60;52.30;;;;;;5030968;28;80035;-52
2022/04/16 14:35:37;;;;;;;;;;;16.70;52.20;;;;;;5031003;28;80402;-52
2022/04/16 14:38:03;;;;;;;;;;;16.60;52.00;;;;;;5030258;28;81807;-52
2022/04/16 14:40:29;;;;;;;;;;;16.60;52.30;;;;;;5030763;28;80224;-52
2022/04/16 14:42:55;;;;;;;;;;;16.60;52.10;;;;;;5030941;28;80892;-51
2022/04/16 14:45:21;;;;;;;;;;;16.70;52.20;;;;;;5031038;28;80659;-52
2022/04/16 14:47:47;;;;;;;;;;;16.70;52.30;;;;;;5030723;28;80220;-52
2022/04/16 14:50:12;;;;;;;;;;;16.60;52.10;;;;;;5030820;28;80497;-51
2022/04/16 14:52:38;;;;;;;;;;;16.70;52.00;;;;;;5033127;28;81985;-52
2022/04/16 14:55:04;;;;;;;;;;;16.60;52.30;;;;;;5030863;28;81109;-51
2022/04/16 14:57:30;;;;;;;;;;;16.70;52.30;;;;;;5030623;28;82247;-53
2022/04/16 14:59:55;;;;;;;;;;;16.70;52.00;;;;;;5030985;28;80218;-51
2022/04/16 15:02:21;;;;;;;;;;;16.60;52.10;;;;;;5030565;28;80478;-52
2022/04/16 15:04:47;;;;;;;;;;;16.70;52.10;;;;;;5030431;28;82046;-53
2022/04/16 15:07:16;;;;;;;;;;;16.60;52.00;;;;;;5030377;28;80208;-55
2022/04/16 15:09:42;;;;;;;;;;;16.70;51.90;;;;;;5030756;28;80275;-54
2022/04/16 15:12:07;;;;;;;;;;;16.60;51.70;;;;;;5030600;28;80171;-52
2022/04/16 15:14:33;;;;;;;;;;;16.70;51.80;;;;;;5033207;28;80416;-51
2022/04/16 15:16:58;;;;;;;;;;;16.70;52.00;;;;;;5030478;28;80582;-52
2022/04/16 15:19:24;;;;;;;;;;;16.70;52.00;;;;;;5030428;28;80205;-55
2022/04/16 15:21:50;;;;;;;;;;;16.70;52.10;;;;;;5030306;28;80294;-52
2022/04/16 15:24:15;;;;;;;;;;;16.70;52.10;;;;;;5030384;28;81773;-55
2022/04/16 15:26:41;;;;;;;;;;;16.70;52.00;;;;;;5031018;28;80361;-55
2022/04/16 15:29:07;;;;;;;;;;;16.70;52.20;;;;;;5030398;28;81482;-55
2022/04/16 15:31:40;;;;;;;;;;;16.70;52.00;;;;;;5030581;28;80038;-55
2022/04/16 15:34:08;;;;;;;;;;;16.70;52.20;;;;;;5030111;28;80199;-55
2022/04/16 15:36:34;;;;;;;;;;;16.70;51.80;;;;;;5033148;28;81505;-55
2022/04/16 15:39:01;;;;;;;;;;;16.70;52.10;;;;;;5030154;28;80345;-55
2022/04/16 15:41:29;;;;;;;;;;;16.70;52.70;;;;;;5030085;28;82033;-53
2022/04/16 15:43:54;;;;;;;;;;;16.70;51.80;;;;;;5028708;28;83531;-55
2022/04/16 15:46:20;;;;;;;;;;;16.70;51.70;;;;;;5029448;28;81043;-51
2022/04/16 15:48:45;;;;;;;;;;;16.70;51.80;;;;;;5028756;28;82213;-51
2022/04/16 15:51:11;;;;;;;;;;;16.70;51.70;;;;;;5028827;28;83430;-52
2022/04/16 15:53:40;;;;;;;;;;;16.70;51.90;;;;;;5028174;28;82786;-52
2022/04/16 15:56:06;;;;;;;;;;;16.80;51.60;;;;;;5031309;28;83886;-53
2022/04/16 15:58:31;;;;;;;;;;;16.80;51.50;;;;;;5028991;28;81869;-56
2022/04/16 16:00:58;;;;;;;;;;;16.70;51.20;;;;;;5029145;28;82831;-55
2022/04/16 16:03:24;;;;;;;;;;;16.70;51.20;;;;;;5028630;28;83668;-52
2022/04/16 16:05:50;;;;;;;;;;;16.80;51.80;;;;;;5029244;28;81896;-54
2022/04/16 16:08:16;;;;;;;;;;;16.70;51.10;;;;;;5028680;28;83711;-51
2022/04/16 16:10:41;;;;;;;;;;;16.70;50.20;;;;;;5028758;28;82614;-52
2022/04/16 16:13:07;;;;;;;;;;;16.70;51.40;;;;;;5028837;28;81823;-51
2022/04/16 16:15:32;;;;;;;;;;;16.70;51.60;;;;;;5033010;28;82224;-52
2022/04/16 16:17:58;;;;;;;;;;;16.80;51.90;;;;;;5034220;28;83049;-52
2022/04/16 16:20:24;;;;;;;;;;;16.80;51.70;;;;;;5032075;28;82865;-54
2022/04/16 16:22:49;;;;;;;;;;;16.80;51.20;;;;;;5031735;28;83405;-54
2022/04/16 16:25:15;;;;;;;;;;;16.80;51.50;;;;;;5031863;28;81914;-52
2022/04/16 16:27:41;;;;;;;;;;;16.80;52.00;;;;;;5031635;28;82182;-53
2022/04/16 16:30:06;;;;;;;;;;;16.80;51.80;;;;;;5031547;28;82664;-52
2022/04/16 16:32:33;;;;;;;;;;;16.80;51.90;;;;;;5031648;28;82002;-52
2022/04/16 16:34:59;;;;;;;;;;;16.80;51.70;;;;;;5032141;28;83346;-52
2022/04/16 16:37:25;;;;;;;;;;;16.80;51.80;;;;;;5031179;28;83496;-52
2022/04/16 16:39:51;;;;;;;;;;;16.80;52.00;;;;;;5034224;28;81828;-52
2022/04/16 16:42:16;;;;;;;;;;;16.80;52.10;;;;;;5030966;28;82746;-52
2022/04/16 16:44:43;;;;;;;;;;;16.70;52.00;;;;;;5031739;28;82111;-53
2022/04/16 16:47:08;;;;;;;;;;;16.80;51.80;;;;;;5031561;28;82878;-51
2022/04/16 16:49:34;;;;;;;;;;;16.70;51.90;;;;;;5031447;28;83374;-51
2022/04/16 16:51:59;;;;;;;;;;;16.70;51.80;;;;;;5031746;28;81822;-51
2022/04/16 16:54:25;;;;;;;;;;;16.70;52.00;;;;;;5031502;28;83149;-54
2022/04/16 16:56:51;;;;;;;;;;;16.70;52.00;;;;;;5031302;28;81873;-52
2022/04/16 16:59:16;;;;;;;;;;;16.70;52.10;;;;;;5031691;28;81068;-51
2022/04/16 17:01:46;;;;;;;;;;;16.70;52.00;;;;;;5033666;28;82513;-51
2022/04/16 17:09:43;;;;;;;;;;;16.70;52.10;;;;;;5027904;28;81785;-51
2022/04/16 17:12:09;;;;;;;;;;;16.70;52.00;;;;;;5030818;28;82019;-52
2022/04/16 17:20:02;;;;;;;;;;;16.70;52.20;;;;;;5031203;28;81884;-51
2022/04/16 17:22:28;;;;;;;;;;;16.70;52.10;;;;;;5030896;28;82151;-52
2022/04/16 17:24:53;;;;;;;;;;;16.70;52.30;;;;;;5033921;28;81168;-51
2022/04/16 17:27:19;;;;;;;;;;;16.70;52.30;;;;;;5030687;28;82545;-53
2022/04/16 17:29:44;;;;;;;;;;;16.70;52.20;;;;;;5030845;28;82456;-52
2022/04/16 17:32:10;;;;;;;;;;;16.70;52.50;;;;;;5029896;28;83310;-53
2022/04/16 17:34:35;;;;;;;;;;;16.70;52.20;;;;;;5031401;28;82728;-51
2022/04/16 17:37:01;;;;;;;;;;;16.60;51.90;;;;;;5030168;28;82758;-51
2022/04/16 17:39:27;;;;;;;;;;;16.60;52.10;;;;;;5030991;28;81797;-53
2022/04/16 17:42:09;;;;;;;;;;;16.60;52.20;;;;;;5030498;28;82857;-51
2022/04/16 17:44:38;;;;;;;;;;;16.60;52.40;;;;;;5030189;28;83516;-51
2022/04/16 17:47:05;;;;;;;;;;;16.60;52.40;;;;;;5033425;28;82086;-55
2022/04/16 17:49:31;;;;;;;;;;;16.60;52.50;;;;;;5030700;28;82505;-51
2022/04/16 17:51:57;;;;;;;;;;;16.70;52.50;;;;;;5030232;28;81790;-51
2022/04/16 17:54:23;;;;;;;;;;;16.60;52.30;;;;;;5030455;28;82948;-55
2022/04/16 17:56:49;;;;;;;;;;;16.60;52.50;;;;;;5029547;28;84472;-51
2022/04/16 17:59:14;;;;;;;;;;;16.60;52.30;;;;;;5030373;28;81879;-51
2022/04/16 18:01:40;;;;;;;;;;;16.60;52.40;;;;;;5030340;28;82800;-51
2022/04/16 18:04:05;;;;;;;;;;;16.60;52.40;;;;;;5030276;28;81816;-51
2022/04/16 18:06:31;;;;;;;;;;;16.60;52.40;;;;;;5032875;28;81760;-53
2022/04/16 18:08:56;;;;;;;;;;;16.60;52.40;;;;;;5030020;28;83426;-52
2022/04/16 18:11:22;;;;;;;;;;;16.60;52.50;;;;;;5030455;28;81930;-51
2022/04/16 18:13:47;;;;;;;;;;;16.60;52.40;;;;;;5030740;28;81790;-53
2022/04/16 18:16:13;;;;;;;;;;;16.60;52.50;;;;;;5029809;28;83850;-51
2022/04/16 18:18:39;;;;;;;;;;;16.60;52.50;;;;;;5029762;28;81756;-53
2022/04/16 18:21:05;;;;;;;;;;;16.60;52.60;;;;;;5029509;28;83106;-53
2022/04/16 18:23:31;;;;;;;;;;;16.60;52.40;;;;;;5029987;28;83781;-51
2022/04/16 18:25:57;;;;;;;;;;;16.60;52.40;;;;;;5029935;28;81950;-51
2022/04/16 18:28:22;;;;;;;;;;;16.60;52.60;;;;;;5031947;28;81789;-54
2022/04/16 18:30:48;;;;;;;;;;;16.60;52.50;;;;;;5029934;28;81842;-51
2022/04/16 18:33:14;;;;;;;;;;;16.60;52.70;;;;;;5030089;28;81848;-51
2022/04/16 18:35:40;;;;;;;;;;;16.60;52.70;;;;;;5029741;28;82333;-53
2022/04/16 18:38:06;;;;;;;;;;;16.60;52.70;;;;;;5029460;28;81468;-53
2022/04/16 18:40:31;;;;;;;;;;;16.60;52.70;;;;;;5029640;28;82012;-55
2022/04/16 18:42:57;;;;;;;;;;;16.60;52.80;;;;;;5029834;28;82735;-53
2022/04/16 18:45:22;;;;;;;;;;;16.60;52.80;;;;;;5029026;28;82764;-53
2022/04/16 18:47:48;;;;;;;;;;;16.50;52.60;;;;;;5029429;28;83946;-51
2022/04/16 18:50:15;;;;;;;;;;;16.50;52.60;;;;;;5031910;28;83484;-52
2022/04/16 18:52:40;;;;;;;;;;;16.50;52.70;;;;;;5029419;28;82872;-52
2022/04/16 18:55:08;;;;;;;;;;;16.50;52.80;;;;;;5029461;28;82289;-51
2022/04/16 18:57:35;;;;;;;;;;;16.50;52.70;;;;;;5029492;28;81875;-52
2022/04/16 19:00:03;;;;;;;;;;;16.50;52.70;;;;;;5029311;28;81882;-52
2022/04/16 19:07:57;;;;;;;;;;;16.50;52.70;;;;;;5029603;28;81924;-51
2022/04/16 19:10:23;;;;;;;;;;;16.50;52.90;;;;;;5028910;28;83509;-50
2022/04/16 19:12:48;;;;;;;;;;;16.50;52.90;;;;;;5031923;28;82050;-54
2022/04/16 19:15:14;;;;;;;;;;;16.40;52.80;;;;;;5028844;28;82686;-52
2022/04/16 19:17:40;;;;;;;;;;;16.50;52.80;;;;;;5029610;28;81873;-54
2022/04/16 19:20:06;;;;;;;;;;;16.40;53.00;;;;;;5029397;28;82759;-52
2022/04/16 19:22:32;;;;;;;;;;;16.40;52.80;;;;;;5028755;28;82571;-51
2022/04/16 19:24:57;;;;;;;;;;;16.40;52.70;;;;;;5029340;28;81838;-51
2022/04/16 19:27:23;;;;;;;;;;;16.40;52.80;;;;;;5029247;28;83228;-51
2022/04/16 19:29:48;;;;;;;;;;;16.40;52.80;;;;;;5029057;28;82793;-51
2022/04/16 19:32:14;;;;;;;;;;;16.40;52.90;;;;;;5028783;28;81814;-53
2022/04/16 19:34:40;;;;;;;;;;;16.40;52.90;;;;;;5030751;28;83029;-52
2022/04/16 19:37:05;;;;;;;;;;;16.30;52.80;;;;;;5028624;28;81913;-52
2022/04/16 19:39:31;;;;;;;;;;;16.40;52.90;;;;;;5029168;28;83189;-51
2022/04/16 19:41:57;;;;;;;;;;;16.30;52.90;;;;;;5028854;28;81762;-51